sensor_id;sensor_type;location;lat;lon;timestamp;pressure;altitude;pressure_sealevel;temperature;humidity
22283;BME280;11310;51.528;21.204;2023-03-20T00:02:26;99960.50;;;4.32;86.70
22283;BME280;11310;51.528;21.204;2023-03-20T00:04:56;99951.00;;;4.31;86.25
22283;BME280;11310;51.528;21.204;2023-03-20T00:07:25;99956.28;;;4.28;86.26
22283;BME280;11310;51.528;21.204;2023-03-20T00:09:56;99951.16;;;4.25;86.75
22283;BME280;11310;51.528;21.204;2023-03-20T00:12:25;99945.03;;;4.27;86.66
22283;BME280;11310;51.528;21.204;2023-03-20T00:14:56;99951.09;;;4.28;86.59
22283;BME280;11310;51.528;21.204;2023-03-20T00:17:28;99951.97;;;4.27;86.01
22283;BME280;11310;51.528;21.204;2023-03-20T00:19:57;99945.91;;;4.28;85.96
22283;BME280;11310;51.528;21.204;2023-03-20T00:22:25;99947.66;;;4.26;86.09
22283;BME280;11310;51.528;21.204;2023-03-20T00:25:01;99943.44;;;4.22;85.94
22283;BME280;11310;51.528;21.204;2023-03-20T00:27:29;99935.72;;;4.19;86.38
22283;BME280;11310;51.528;21.204;2023-03-20T00:29:58;99941.78;;;4.18;86.90
22283;BME280;11310;51.528;21.204;2023-03-20T00:32:29;99942.69;;;4.17;86.36
22283;BME280;11310;51.528;21.204;2023-03-20T00:34:58;99936.72;;;4.12;87.38
22283;BME280;11310;51.528;21.204;2023-03-20T00:37:27;99942.88;;;4.08;87.26
22283;BME280;11310;51.528;21.204;2023-03-20T00:39:57;99949.00;;;4.05;87.03
22283;BME280;11310;51.528;21.204;2023-03-20T00:42:26;99940.41;;;4.02;87.33
22283;BME280;11310;51.528;21.204;2023-03-20T00:44:55;99946.44;;;4.02;88.24
22283;BME280;11310;51.528;21.204;2023-03-20T00:47:25;99943.81;;;4.04;87.60
22283;BME280;11310;51.528;21.204;2023-03-20T00:49:56;99942.06;;;4.06;87.42
22283;BME280;11310;51.528;21.204;2023-03-20T00:52:25;99936.03;;;4.04;87.24
22283;BME280;11310;51.528;21.204;2023-03-20T00:54:55;99934.34;;;4.03;88.25
22283;BME280;11310;51.528;21.204;2023-03-20T00:57:26;99936.16;;;3.99;88.26
22283;BME280;11310;51.528;21.204;2023-03-20T00:59:58;99939.72;;;3.94;88.24
22283;BME280;11310;51.528;21.204;2023-03-20T01:02:29;99935.47;;;3.90;88.49
22283;BME280;11310;51.528;21.204;2023-03-20T01:05:01;99936.41;;;3.86;88.01
22283;BME280;11310;51.528;21.204;2023-03-20T01:07:31;99935.66;;;3.81;91.79
22283;BME280;11310;51.528;21.204;2023-03-20T01:10:02;99936.56;;;3.80;89.23
22283;BME280;11310;51.528;21.204;2023-03-20T01:12:32;99936.56;;;3.78;88.64
22283;BME280;11310;51.528;21.204;2023-03-20T01:15:14;99932.34;;;3.74;89.07
22283;BME280;11310;51.528;21.204;2023-03-20T01:17:43;99934.94;;;3.73;89.60
22283;BME280;11310;51.528;21.204;2023-03-20T01:20:18;99928.97;;;3.71;89.75
22283;BME280;11310;51.528;21.204;2023-03-20T01:22:48;99928.16;;;3.69;89.50
22283;BME280;11310;51.528;21.204;2023-03-20T01:25:17;99930.69;;;3.70;89.67
22283;BME280;11310;51.528;21.204;2023-03-20T01:27:48;99924.56;;;3.73;89.69
22283;BME280;11310;51.528;21.204;2023-03-20T01:30:23;99928.09;;;3.70;90.17
22283;BME280;11310;51.528;21.204;2023-03-20T01:32:53;99927.22;;;3.71;90.15
22283;BME280;11310;51.528;21.204;2023-03-20T01:35:27;99928.06;;;3.72;90.47
22283;BME280;11310;51.528;21.204;2023-03-20T01:38:00;99925.50;;;3.70;89.77
22283;BME280;11310;51.528;21.204;2023-03-20T01:40:33;99926.38;;;3.71;90.07
22283;BME280;11310;51.528;21.204;2023-03-20T01:43:13;99924.69;;;3.68;90.36
22283;BME280;11310;51.528;21.204;2023-03-20T01:45:55;99923.88;;;3.66;94.76
22283;BME280;11310;51.528;21.204;2023-03-20T01:48:34;99922.19;;;3.64;91.16
22283;BME280;11310;51.528;21.204;2023-03-20T01:51:05;99918.75;;;3.62;91.46
22283;BME280;11310;51.528;21.204;2023-03-20T01:53:34;99906.84;;;3.53;90.99
22283;BME280;11310;51.528;21.204;2023-03-20T01:56:04;99919.69;;;3.59;91.40
22283;BME280;11310;51.528;21.204;2023-03-20T01:58:43;99912.81;;;3.57;91.55
22283;BME280;11310;51.528;21.204;2023-03-20T02:01:14;99909.41;;;3.55;91.24
22283;BME280;11310;51.528;21.204;2023-03-20T02:03:47;99910.34;;;3.52;92.36
22283;BME280;11310;51.528;21.204;2023-03-20T02:06:37;99916.38;;;3.51;91.89
22283;BME280;11310;51.528;21.204;2023-03-20T02:09:15;99916.47;;;3.48;92.24
22283;BME280;11310;51.528;21.204;2023-03-20T02:11:45;99912.19;;;3.46;92.45
22283;BME280;11310;51.528;21.204;2023-03-20T02:14:17;99917.41;;;3.44;96.69
22283;BME280;11310;51.528;21.204;2023-03-20T02:16:55;99913.97;;;3.42;93.18
22283;BME280;11310;51.528;21.204;2023-03-20T02:19:41;99915.72;;;3.42;93.06
22283;BME280;11310;51.528;21.204;2023-03-20T02:22:32;99902.81;;;3.39;93.11
22283;BME280;11310;51.528;21.204;2023-03-20T02:25:49;99906.34;;;3.35;93.89
22283;BME280;11310;51.528;21.204;2023-03-20T02:28:46;99904.69;;;3.31;93.82
22283;BME280;11310;51.528;21.204;2023-03-20T02:31:35;99903.88;;;3.29;93.87
22283;BME280;11310;51.528;21.204;2023-03-20T02:37:39;99897.13;;;3.20;94.27
22283;BME280;11310;51.528;21.204;2023-03-20T02:40:22;99901.44;;;3.20;93.51
22283;BME280;11310;51.528;21.204;2023-03-20T02:42:57;99890.22;;;3.19;94.21
22283;BME280;11310;51.528;21.204;2023-03-20T02:45:35;99890.31;;;3.15;94.45
22283;BME280;11310;51.528;21.204;2023-03-20T02:48:15;99888.63;;;3.14;94.20
22283;BME280;11310;51.528;21.204;2023-03-20T02:50:50;99887.81;;;3.09;94.69
22283;BME280;11310;51.528;21.204;2023-03-20T02:53:30;99887.03;;;3.05;95.41
22283;BME280;11310;51.528;21.204;2023-03-20T02:56:07;99891.38;;;3.05;95.34
22283;BME280;11310;51.528;21.204;2023-03-20T02:58:42;99878.44;;;3.03;95.21
22283;BME280;11310;51.528;21.204;2023-03-20T03:01:18;99882.75;;;3.03;95.58
22283;BME280;11310;51.528;21.204;2023-03-20T03:03:52;99882.81;;;3.00;95.58
22283;BME280;11310;51.528;21.204;2023-03-20T03:06:27;99879.41;;;2.96;95.94
22283;BME280;11310;51.528;21.204;2023-03-20T03:09:01;99885.47;;;2.97;96.57
22283;BME280;11310;51.528;21.204;2023-03-20T03:11:33;99877.69;;;2.97;96.26
22283;BME280;11310;51.528;21.204;2023-03-20T03:14:03;99876.81;;;2.98;96.00
22283;BME280;11310;51.528;21.204;2023-03-20T03:16:36;99877.56;;;3.03;96.03
22283;BME280;11310;51.528;21.204;2023-03-20T03:19:07;99872.34;;;3.06;96.17
22283;BME280;11310;51.528;21.204;2023-03-20T03:21:39;99874.91;;;3.07;96.30
22283;BME280;11310;51.528;21.204;2023-03-20T03:24:22;99878.34;;;3.06;96.27
22283;BME280;11310;51.528;21.204;2023-03-20T03:27:14;99877.56;;;3.03;95.57
22283;BME280;11310;51.528;21.204;2023-03-20T03:29:49;99868.06;;;3.03;95.44
22283;BME280;11310;51.528;21.204;2023-03-20T03:32:24;99870.53;;;3.09;95.27
22283;BME280;11310;51.528;21.204;2023-03-20T03:34:53;99877.34;;;3.15;95.42
22283;BME280;11310;51.528;21.204;2023-03-20T03:37:33;99867.00;;;3.15;94.85
22283;BME280;11310;51.528;21.204;2023-03-20T03:40:16;99865.34;;;3.11;95.36
22283;BME280;11310;51.528;21.204;2023-03-20T03:42:52;99867.16;;;3.06;95.49
22283;BME280;11310;51.528;21.204;2023-03-20T03:45:30;99863.81;;;3.01;95.37
22283;BME280;11310;51.528;21.204;2023-03-20T03:48:02;99858.66;;;2.98;95.70
22283;BME280;11310;51.528;21.204;2023-03-20T03:50:37;99863.94;;;2.93;96.09
22283;BME280;11310;51.528;21.204;2023-03-20T03:53:18;99864.00;;;2.89;96.54
22283;BME280;11310;51.528;21.204;2023-03-20T03:55:53;99864.91;;;2.86;97.04
22283;BME280;11310;51.528;21.204;2023-03-20T03:58:26;99867.63;;;2.82;97.19
22283;BME280;11310;51.528;21.204;2023-03-20T04:00:58;99868.41;;;2.85;97.72
22283;BME280;11310;51.528;21.204;2023-03-20T04:03:29;99857.94;;;2.90;97.29
22283;BME280;11310;51.528;21.204;2023-03-20T04:06:02;99862.28;;;2.91;96.90
22283;BME280;11310;51.528;21.204;2023-03-20T04:08:32;99858.03;;;2.87;97.03
22283;BME280;11310;51.528;21.204;2023-03-20T04:11:02;99858.88;;;2.86;97.34
22283;BME280;11310;51.528;21.204;2023-03-20T04:13:31;99860.66;;;2.84;97.34
22283;BME280;11310;51.528;21.204;2023-03-20T04:16:00;99854.59;;;2.83;97.50
22283;BME280;11310;51.528;21.204;2023-03-20T04:18:30;99854.59;;;2.83;98.17
22283;BME280;11310;51.528;21.204;2023-03-20T04:20:59;99852.06;;;2.82;97.73
22283;BME280;11310;51.528;21.204;2023-03-20T04:23:28;99852.06;;;2.82;97.85
22283;BME280;11310;51.528;21.204;2023-03-20T04:25:57;99850.31;;;2.82;98.28
22283;BME280;11310;51.528;21.204;2023-03-20T04:28:29;99857.25;;;2.82;98.44
22283;BME280;11310;51.528;21.204;2023-03-20T04:31:18;99849.47;;;2.82;98.26
22283;BME280;11310;51.528;21.204;2023-03-20T04:34:26;99861.53;;;2.84;99.05
22283;BME280;11310;51.528;21.204;2023-03-20T04:37:07;99864.91;;;2.86;98.89
22283;BME280;11310;51.528;21.204;2023-03-20T04:39:48;99861.59;;;2.80;98.76
22283;BME280;11310;51.528;21.204;2023-03-20T04:42:17;99860.81;;;2.75;98.95
22283;BME280;11310;51.528;21.204;2023-03-20T04:44:47;99863.28;;;2.81;99.37
22283;BME280;11310;51.528;21.204;2023-03-20T04:47:16;99856.28;;;2.86;99.68
22283;BME280;11310;51.528;21.204;2023-03-20T04:49:45;99860.50;;;2.93;99.14
22283;BME280;11310;51.528;21.204;2023-03-20T04:52:17;99858.66;;;2.99;98.66
22283;BME280;11310;51.528;21.204;2023-03-20T04:54:46;99862.88;;;3.05;98.57
22283;BME280;11310;51.528;21.204;2023-03-20T04:57:17;99861.13;;;3.05;98.38
22283;BME280;11310;51.528;21.204;2023-03-20T04:59:48;99862.72;;;3.12;97.91
22283;BME280;11310;51.528;21.204;2023-03-20T05:02:17;99864.41;;;3.15;97.68
22283;BME280;11310;51.528;21.204;2023-03-20T05:04:45;99866.91;;;3.18;97.48
22283;BME280;11310;51.528;21.204;2023-03-20T05:07:14;99866.91;;;3.18;97.63
22283;BME280;11310;51.528;21.204;2023-03-20T05:09:58;99858.28;;;3.19;97.84
22283;BME280;11310;51.528;21.204;2023-03-20T05:12:30;99859.09;;;3.21;98.18
22283;BME280;11310;51.528;21.204;2023-03-20T05:15:10;99855.53;;;3.26;97.35
22283;BME280;11310;51.528;21.204;2023-03-20T05:17:59;99860.56;;;3.34;97.58
22283;BME280;11310;51.528;21.204;2023-03-20T05:20:52;99863.03;;;3.40;97.25
22283;BME280;11310;51.528;21.204;2023-03-20T05:23:43;99855.09;;;3.47;97.37
22283;BME280;11310;51.528;21.204;2023-03-20T05:26:22;99859.22;;;3.57;96.83
22283;BME280;11310;51.528;21.204;2023-03-20T05:29:10;99869.41;;;3.66;96.77
22283;BME280;11310;51.528;21.204;2023-03-20T05:32:02;99859.72;;;3.73;96.83
22283;BME280;11310;51.528;21.204;2023-03-20T05:34:52;99869.06;;;3.83;97.56
22283;BME280;11310;51.528;21.204;2023-03-20T05:37:30;99878.28;;;3.96;96.94
22283;BME280;11310;51.528;21.204;2023-03-20T05:40:13;99867.72;;;4.03;96.55
22283;BME280;11310;51.528;21.204;2023-03-20T05:42:58;99871.13;;;4.05;96.32
22283;BME280;11310;51.528;21.204;2023-03-20T05:45:36;99875.13;;;4.20;96.16
22283;BME280;11310;51.528;21.204;2023-03-20T05:48:19;99877.53;;;4.29;95.99
22283;BME280;11310;51.528;21.204;2023-03-20T05:51:14;99879.81;;;4.41;95.76
22283;BME280;11310;51.528;21.204;2023-03-20T05:53:52;99877.84;;;4.50;95.73
22283;BME280;11310;51.528;21.204;2023-03-20T05:56:32;99877.66;;;4.58;95.38
22283;BME280;11310;51.528;21.204;2023-03-20T05:59:20;99878.38;;;4.64;94.92
22283;BME280;11310;51.528;21.204;2023-03-20T06:02:09;99875.53;;;4.75;95.40
22283;BME280;11310;51.528;21.204;2023-03-20T06:04:44;99884.81;;;4.83;94.92
22283;BME280;11310;51.528;21.204;2023-03-20T06:07:43;99880.25;;;4.93;94.61
22283;BME280;11310;51.528;21.204;2023-03-20T06:10:14;99883.59;;;4.98;94.15
22283;BME280;11310;51.528;21.204;2023-03-20T06:12:43;99885.28;;;4.99;94.42
22283;BME280;11310;51.528;21.204;2023-03-20T06:15:13;99891.22;;;5.04;94.66
22283;BME280;11310;51.528;21.204;2023-03-20T06:17:48;99892.06;;;5.04;95.19
22283;BME280;11310;51.528;21.204;2023-03-20T06:20:19;99888.53;;;5.07;95.40
22283;BME280;11310;51.528;21.204;2023-03-20T06:22:47;99889.34;;;5.09;94.92
22283;BME280;11310;51.528;21.204;2023-03-20T06:25:16;99893.50;;;5.16;95.54
22283;BME280;11310;51.528;21.204;2023-03-20T06:27:46;99884.63;;;5.23;94.94
22283;BME280;11310;51.528;21.204;2023-03-20T06:30:15;99887.97;;;5.28;94.83
22283;BME280;11310;51.528;21.204;2023-03-20T06:32:45;99883.56;;;5.31;94.83
22283;BME280;11310;51.528;21.204;2023-03-20T06:35:16;99892.91;;;5.37;94.74
22283;BME280;11310;51.528;21.204;2023-03-20T06:37:51;99885.91;;;5.40;93.79
22283;BME280;11310;51.528;21.204;2023-03-20T06:40:25;99892.72;;;5.44;94.19
22283;BME280;11310;51.528;21.204;2023-03-20T06:42:54;99895.19;;;5.49;93.99
22283;BME280;11310;51.528;21.204;2023-03-20T06:45:33;99895.94;;;5.52;93.87
22283;BME280;11310;51.528;21.204;2023-03-20T06:48:07;99888.03;;;5.57;93.43
22283;BME280;11310;51.528;21.204;2023-03-20T06:50:36;99890.59;;;5.58;93.57
22283;BME280;11310;51.528;21.204;2023-03-20T06:53:11;99886.03;;;5.65;94.06
22283;BME280;11310;51.528;21.204;2023-03-20T06:55:46;99900.56;;;5.73;93.89
22283;BME280;11310;51.528;21.204;2023-03-20T06:58:15;99894.34;;;5.79;93.88
22283;BME280;11310;51.528;21.204;2023-03-20T07:00:46;99882.88;;;5.86;92.89
22283;BME280;11310;51.528;21.204;2023-03-20T07:03:15;99899.88;;;5.97;92.68
22283;BME280;11310;51.528;21.204;2023-03-20T07:05:46;99896.88;;;6.11;92.63
22283;BME280;11310;51.528;21.204;2023-03-20T07:08:17;99890.03;;;6.34;91.37
22283;BME280;11310;51.528;21.204;2023-03-20T07:10:48;99901.41;;;6.59;91.23
22283;BME280;11310;51.528;21.204;2023-03-20T07:13:18;99891.13;;;6.81;90.29
22283;BME280;11310;51.528;21.204;2023-03-20T07:15:47;99894.53;;;7.09;88.66
22283;BME280;11310;51.528;21.204;2023-03-20T07:18:35;99889.41;;;7.30;87.75
22283;BME280;11310;51.528;21.204;2023-03-20T07:21:05;99895.94;;;7.42;87.91
22283;BME280;11310;51.528;21.204;2023-03-20T07:23:44;99897.91;;;7.60;86.75
22283;BME280;11310;51.528;21.204;2023-03-20T07:26:15;99905.06;;;7.78;86.44
22283;BME280;11310;51.528;21.204;2023-03-20T07:28:45;99898.31;;;7.95;85.19
22283;BME280;11310;51.528;21.204;2023-03-20T07:31:23;99895.09;;;8.12;84.17
22283;BME280;11310;51.528;21.204;2023-03-20T07:34:02;99893.59;;;8.28;83.90
22283;BME280;11310;51.528;21.204;2023-03-20T07:36:33;99894.72;;;8.44;83.99
22283;BME280;11310;51.528;21.204;2023-03-20T07:39:04;99898.97;;;8.68;83.32
22283;BME280;11310;51.528;21.204;2023-03-20T07:41:35;99898.72;;;8.94;82.12
22283;BME280;11310;51.528;21.204;2023-03-20T07:44:08;99898.63;;;9.17;81.43
22283;BME280;11310;51.528;21.204;2023-03-20T07:46:50;99889.75;;;9.41;80.44
22283;BME280;11310;51.528;21.204;2023-03-20T07:49:22;99893.97;;;9.63;79.30
22283;BME280;11310;51.528;21.204;2023-03-20T07:51:51;99894.47;;;9.90;78.90
22283;BME280;11310;51.528;21.204;2023-03-20T07:54:23;99899.28;;;10.19;77.95
22283;BME280;11310;51.528;21.204;2023-03-20T07:56:52;99882.81;;;10.52;77.46
22283;BME280;11310;51.528;21.204;2023-03-20T07:59:21;99894.53;;;10.98;75.44
22283;BME280;11310;51.528;21.204;2023-03-20T08:01:49;99891.28;;;11.44;73.82
22283;BME280;11310;51.528;21.204;2023-03-20T08:04:19;99883.38;;;11.78;72.30
22283;BME280;11310;51.528;21.204;2023-03-20T08:06:49;99879.53;;;12.16;70.84
22283;BME280;11310;51.528;21.204;2023-03-20T08:09:19;99890.97;;;12.46;69.93
22283;BME280;11310;51.528;21.204;2023-03-20T08:11:49;99886.41;;;12.65;68.66
22283;BME280;11310;51.528;21.204;2023-03-20T08:14:22;99883.56;;;12.68;68.43
22283;BME280;11310;51.528;21.204;2023-03-20T08:16:51;99889.41;;;12.73;68.18
22283;BME280;11310;51.528;21.204;2023-03-20T08:19:38;99891.75;;;12.64;69.26
22283;BME280;11310;51.528;21.204;2023-03-20T08:22:07;99888.16;;;12.65;69.21
22283;BME280;11310;51.528;21.204;2023-03-20T08:24:37;99889.09;;;12.64;69.03
22283;BME280;11310;51.528;21.204;2023-03-20T08:27:07;99896.47;;;12.88;68.83
22283;BME280;11310;51.528;21.204;2023-03-20T08:29:37;99888.06;;;13.27;67.60
22283;BME280;11310;51.528;21.204;2023-03-20T08:32:05;99895.81;;;13.58;66.77
22283;BME280;11310;51.528;21.204;2023-03-20T08:34:34;99885.56;;;13.67;65.14
22283;BME280;11310;51.528;21.204;2023-03-20T08:37:04;99901.38;;;13.67;65.40
22283;BME280;11310;51.528;21.204;2023-03-20T08:39:34;99905.94;;;13.79;65.13
22283;BME280;11310;51.528;21.204;2023-03-20T08:42:03;99903.66;;;14.01;64.60
22283;BME280;11310;51.528;21.204;2023-03-20T08:44:33;99896.59;;;14.16;63.76
22283;BME280;11310;51.528;21.204;2023-03-20T08:47:01;99897.47;;;14.30;63.77
22283;BME280;11310;51.528;21.204;2023-03-20T08:49:32;99897.06;;;14.36;62.93
22283;BME280;11310;51.528;21.204;2023-03-20T08:52:01;99897.22;;;14.47;63.06
22283;BME280;11310;51.528;21.204;2023-03-20T08:54:30;99896.75;;;14.81;62.52
22283;BME280;11310;51.528;21.204;2023-03-20T08:57:00;99886.66;;;15.00;60.83
22283;BME280;11310;51.528;21.204;2023-03-20T08:59:28;99898.22;;;15.12;60.81
22283;BME280;11310;51.528;21.204;2023-03-20T09:01:59;99902.25;;;15.17;60.82
22283;BME280;11310;51.528;21.204;2023-03-20T09:04:28;99900.34;;;15.19;60.59
22283;BME280;11310;51.528;21.204;2023-03-20T09:06:57;99897.63;;;15.33;60.93
22283;BME280;11310;51.528;21.204;2023-03-20T09:09:27;99902.97;;;15.71;59.88
22283;BME280;11310;51.528;21.204;2023-03-20T09:11:57;99900.00;;;16.00;58.63
22283;BME280;11310;51.528;21.204;2023-03-20T09:14:27;99903.38;;;16.27;57.85
22283;BME280;11310;51.528;21.204;2023-03-20T09:16:55;99902.47;;;16.39;57.03
22283;BME280;11310;51.528;21.204;2023-03-20T09:19:26;99902.09;;;16.45;56.25
22283;BME280;11310;51.528;21.204;2023-03-20T09:21:57;99905.41;;;16.60;56.57
22283;BME280;11310;51.528;21.204;2023-03-20T09:24:26;99903.63;;;16.84;56.26
22283;BME280;11310;51.528;21.204;2023-03-20T09:26:58;99905.09;;;17.11;56.29
22283;BME280;11310;51.528;21.204;2023-03-20T09:29:30;99903.22;;;17.24;55.49
22283;BME280;11310;51.528;21.204;2023-03-20T09:31:59;99910.69;;;17.30;54.50
22283;BME280;11310;51.528;21.204;2023-03-20T09:34:30;99904.69;;;17.28;53.12
22283;BME280;11310;51.528;21.204;2023-03-20T09:36:58;99893.59;;;17.34;53.68
22283;BME280;11310;51.528;21.204;2023-03-20T09:39:29;99899.16;;;17.66;52.85
22283;BME280;11310;51.528;21.204;2023-03-20T09:42:05;99909.56;;;18.13;50.77
22283;BME280;11310;51.528;21.204;2023-03-20T09:44:45;99899.56;;;18.27;48.51
22283;BME280;11310;51.528;21.204;2023-03-20T09:47:21;99906.78;;;18.25;49.76
22283;BME280;11310;51.528;21.204;2023-03-20T09:50:05;99905.22;;;17.90;50.48
22283;BME280;11310;51.528;21.204;2023-03-20T09:52:39;99900.50;;;17.82;51.91
22283;BME280;11310;51.528;21.204;2023-03-20T09:55:13;99900.63;;;18.03;50.92
22283;BME280;11310;51.528;21.204;2023-03-20T09:57:46;99906.28;;;18.20;51.56
22283;BME280;11310;51.528;21.204;2023-03-20T10:00:20;99910.03;;;18.51;49.66
22283;BME280;11310;51.528;21.204;2023-03-20T10:02:53;99907.41;;;18.93;47.95
22283;BME280;11310;51.528;21.204;2023-03-20T10:05:29;99909.25;;;19.13;47.87
22283;BME280;11310;51.528;21.204;2023-03-20T10:08:01;99912.44;;;19.59;47.52
22283;BME280;11310;51.528;21.204;2023-03-20T10:10:40;99907.72;;;19.83;45.47
22283;BME280;11310;51.528;21.204;2023-03-20T10:13:27;99914.97;;;19.81;45.28
22283;BME280;11310;51.528;21.204;2023-03-20T10:16:06;99909.53;;;19.62;45.18
22283;BME280;11310;51.528;21.204;2023-03-20T10:18:45;99903.56;;;19.29;45.98
22283;BME280;11310;51.528;21.204;2023-03-20T10:21:23;99908.53;;;19.22;45.58
22283;BME280;11310;51.528;21.204;2023-03-20T10:23:59;99907.47;;;19.66;45.74
22283;BME280;11310;51.528;21.204;2023-03-20T10:26:32;99905.19;;;19.61;45.78
22283;BME280;11310;51.528;21.204;2023-03-20T10:29:05;99907.13;;;19.39;45.23
22283;BME280;11310;51.528;21.204;2023-03-20T10:31:41;99902.47;;;19.20;43.38
22283;BME280;11310;51.528;21.204;2023-03-20T10:34:25;99901.91;;;19.06;42.35
22283;BME280;11310;51.528;21.204;2023-03-20T10:37:12;99903.66;;;19.27;43.71
22283;BME280;11310;51.528;21.204;2023-03-20T10:39:50;99898.31;;;19.38;42.95
22283;BME280;11310;51.528;21.204;2023-03-20T10:42:26;99901.47;;;19.73;44.36
22283;BME280;11310;51.528;21.204;2023-03-20T10:45:00;99896.22;;;19.62;43.20
22283;BME280;11310;51.528;21.204;2023-03-20T10:47:33;99902.34;;;19.53;44.80
22283;BME280;11310;51.528;21.204;2023-03-20T10:50:07;99896.19;;;19.21;43.83
22283;BME280;11310;51.528;21.204;2023-03-20T10:52:40;99902.00;;;18.84;46.15
22283;BME280;11310;51.528;21.204;2023-03-20T10:55:13;99903.28;;;18.47;46.69
22283;BME280;11310;51.528;21.204;2023-03-20T10:57:46;99905.94;;;18.14;47.80
22283;BME280;11310;51.528;21.204;2023-03-20T11:00:21;99896.63;;;18.08;48.51
22283;BME280;11310;51.528;21.204;2023-03-20T11:02:50;99907.00;;;17.78;50.12
22283;BME280;11310;51.528;21.204;2023-03-20T11:05:22;99899.16;;;17.31;51.88
22283;BME280;11310;51.528;21.204;2023-03-20T11:08:02;99905.22;;;16.86;52.05
22283;BME280;11310;51.528;21.204;2023-03-20T11:10:57;99897.41;;;16.36;54.34
22283;BME280;11310;51.528;21.204;2023-03-20T11:13:41;99909.13;;;15.96;57.10
22283;BME280;11310;51.528;21.204;2023-03-20T11:16:29;99907.66;;;15.67;57.98
22283;BME280;11310;51.528;21.204;2023-03-20T11:19:13;99900.75;;;15.52;59.21
22283;BME280;11310;51.528;21.204;2023-03-20T11:21:47;99905.50;;;15.47;59.83
22283;BME280;11310;51.528;21.204;2023-03-20T11:24:34;99911.22;;;15.41;60.80
22283;BME280;11310;51.528;21.204;2023-03-20T11:27:05;99899.72;;;15.28;60.51
22283;BME280;11310;51.528;21.204;2023-03-20T11:29:35;99898.22;;;15.24;61.01
22283;BME280;11310;51.528;21.204;2023-03-20T11:32:07;99898.75;;;15.17;61.78
22283;BME280;11310;51.528;21.204;2023-03-20T11:34:39;99888.44;;;15.00;61.90
22283;BME280;11310;51.528;21.204;2023-03-20T11:37:21;99891.28;;;14.84;63.52
22283;BME280;11310;51.528;21.204;2023-03-20T11:39:57;99891.97;;;14.74;63.93
22283;BME280;11310;51.528;21.204;2023-03-20T11:42:28;99888.66;;;14.70;63.76
22283;BME280;11310;51.528;21.204;2023-03-20T11:45:04;99888.34;;;14.62;65.08
22283;BME280;11310;51.528;21.204;2023-03-20T11:47:34;99878.34;;;14.53;65.20
22283;BME280;11310;51.528;21.204;2023-03-20T11:50:04;99886.22;;;14.41;65.91
22283;BME280;11310;51.528;21.204;2023-03-20T11:52:35;99886.22;;;14.27;66.71
22283;BME280;11310;51.528;21.204;2023-03-20T11:55:22;99889.53;;;14.16;69.55
22283;BME280;11310;51.528;21.204;2023-03-20T11:57:55;99894.91;;;14.01;69.44
22283;BME280;11310;51.528;21.204;2023-03-20T12:00:27;99895.00;;;13.85;69.62
22283;BME280;11310;51.528;21.204;2023-03-20T12:02:56;99887.47;;;13.79;71.29
22283;BME280;11310;51.528;21.204;2023-03-20T12:05:31;99889.16;;;13.66;73.96
22283;BME280;11310;51.528;21.204;2023-03-20T12:08:03;99885.09;;;13.47;74.12
22283;BME280;11310;51.528;21.204;2023-03-20T12:10:41;99888.44;;;13.35;76.75
22283;BME280;11310;51.528;21.204;2023-03-20T12:13:13;99885.59;;;13.24;76.30
22283;BME280;11310;51.528;21.204;2023-03-20T12:15:46;99885.09;;;13.17;76.50
22283;BME280;11310;51.528;21.204;2023-03-20T12:18:24;99886.22;;;13.13;81.42
22283;BME280;11310;51.528;21.204;2023-03-20T12:21:02;99880.22;;;13.11;78.87
22283;BME280;11310;51.528;21.204;2023-03-20T12:23:37;99885.66;;;13.08;78.60
22283;BME280;11310;51.528;21.204;2023-03-20T12:26:12;99879.63;;;13.06;79.33
22283;BME280;11310;51.528;21.204;2023-03-20T12:28:46;99876.81;;;13.09;80.79
22283;BME280;11310;51.528;21.204;2023-03-20T12:31:23;99875.13;;;13.08;81.34
22283;BME280;11310;51.528;21.204;2023-03-20T12:33:56;99883.97;;;13.07;81.74
22283;BME280;11310;51.528;21.204;2023-03-20T12:36:31;99879.81;;;13.03;82.78
22283;BME280;11310;51.528;21.204;2023-03-20T12:39:01;99866.81;;;13.00;83.85
22283;BME280;11310;51.528;21.204;2023-03-20T12:41:39;99874.09;;;12.95;85.96
22283;BME280;11310;51.528;21.204;2023-03-20T12:44:19;99860.72;;;13.00;87.04
22283;BME280;11310;51.528;21.204;2023-03-20T12:46:59;99860.34;;;13.06;85.23
22283;BME280;11310;51.528;21.204;2023-03-20T12:49:43;99855.72;;;13.09;86.77
22283;BME280;11310;51.528;21.204;2023-03-20T12:52:19;99863.94;;;13.19;86.38
22283;BME280;11310;51.528;21.204;2023-03-20T12:55:11;99858.41;;;13.23;88.64
22283;BME280;11310;51.528;21.204;2023-03-20T12:57:58;99862.47;;;13.29;88.26
22283;BME280;11310;51.528;21.204;2023-03-20T13:00:31;99856.34;;;13.28;84.82
22283;BME280;11310;51.528;21.204;2023-03-20T13:03:10;99857.09;;;13.30;85.03
22283;BME280;11310;51.528;21.204;2023-03-20T13:05:50;99855.59;;;13.26;83.97
22283;BME280;11310;51.528;21.204;2023-03-20T13:08:47;99858.41;;;13.23;84.71
22283;BME280;11310;51.528;21.204;2023-03-20T13:11:28;99851.19;;;13.27;85.67
22283;BME280;11310;51.528;21.204;2023-03-20T13:14:02;99856.53;;;13.25;83.60
22283;BME280;11310;51.528;21.204;2023-03-20T13:16:41;99848.72;;;13.24;84.82
22283;BME280;11310;51.528;21.204;2023-03-20T13:19:22;99850.88;;;13.17;85.47
22283;BME280;11310;51.528;21.204;2023-03-20T13:21:57;99848.78;;;13.08;84.46
22283;BME280;11310;51.528;21.204;2023-03-20T13:24:35;99836.72;;;13.04;84.57
22283;BME280;11310;51.528;21.204;2023-03-20T13:27:24;99837.00;;;13.00;86.80
22283;BME280;11310;51.528;21.204;2023-03-20T13:30:01;99841.91;;;12.90;86.18
22283;BME280;11310;51.528;21.204;2023-03-20T13:32:38;99839.72;;;12.83;85.85
22283;BME280;11310;51.528;21.204;2023-03-20T13:35:24;99832.63;;;12.69;91.12
22283;BME280;11310;51.528;21.204;2023-03-20T13:37:58;99838.31;;;12.62;85.76
22283;BME280;11310;51.528;21.204;2023-03-20T13:40:27;99838.53;;;12.59;90.80